• Join FlightAware (Why Join?)
  • Login
  • US Flag 
05:35PM EDT


 

Airport Tracker/Info


-or-


 

Live Flight TrackerFlight Track Log ✈ EJA947 ✈ 13-Apr-2013 ✈ KCRQ - KSLN

Flight Track Log - Related Links

Times and Time Zones

All times are in EDT time to prevent confusion due to time zone crossing. See the EJA947 flight status page for this flight to view local times or setup timezone preferences in your user account.

Time Position Orientation Groundspeed Altitude Reporting Facility
EDT Latitude Longitude Course Direction KTS MPH feet Rate Location/Type
01:31PM 33.4225 -116.5264 65° Northeast  Level Estimated
01:32PM 33.4808 -116.3751 65° Northeast  Level Estimated
01:33PM 33.5389 -116.2235 65° Northeast  Level Estimated
01:34PM 33.5968 -116.0718 65° Northeast  Level Estimated
01:35PM 33.6546 -115.9199 65° Northeast  Level Estimated
01:36PM 33.7122 -115.7677 66° East  Level Estimated
01:37PM 33.7695 -115.6153 66° East  Level Estimated
01:38PM 33.8267 -115.4628 66° East  Level Estimated
01:39PM 33.8837 -115.3100 66° East  Level Estimated
01:40PM 33.9405 -115.1570 66° East  Level Estimated
01:41PM 33.9971 -115.0039 66° East  Level Estimated
01:42PM 34.0536 -114.8505 66° East  Level Estimated
01:43PM 34.1098 -114.6969 66° East  Level Estimated
01:44PM 34.1659 -114.5431 66° East  Level Estimated
01:45PM 34.2217 -114.3891 66° East  Level Estimated
01:46PM 34.2774 -114.2349 66° East  Level Estimated
01:47PM 34.3328 -114.0805 66° East  Level Estimated
01:48PM 34.3881 -113.9259 67° East  Level Estimated
01:49PM 34.4432 -113.7711 67° East  Level Estimated
01:50PM 34.4981 -113.6161 67° East  Level Estimated
01:51PM 34.5528 -113.4609 67° East  Level Estimated
01:52PM 34.6073 -113.3055 67° East  Level Estimated
01:53PM 34.6615 -113.1499 67° East  Level Estimated
01:54PM 34.7156 -112.9940 67° East  Level Estimated
01:55PM 34.7695 -112.8380 67° East  Level Estimated
01:56PM 34.8232 -112.6818 67° East  Level Estimated
01:57PM 34.8767 -112.5253 67° East  Level Estimated
01:58PM 34.9300 -112.3687 67° East  Level Estimated
01:59PM 34.9831 -112.2119 68° East  Level Estimated
02:00PM 35.0360 -112.0548 68° East  Level Estimated
02:01PM 35.0887 -111.8976 68° East  Level Estimated
02:02PM 35.1412 -111.7401 68° East  Level Estimated
02:03PM 35.1935 -111.5825 68° East  Level Estimated
02:04PM 35.2456 -111.4246 68° East  Level Estimated
02:05PM 35.2975 -111.2665 68° East  Level Estimated
02:06PM 35.3491 -111.1083 68° East  Level Estimated
02:07PM 35.4006 -110.9498 68° East  Level Estimated
02:08PM 35.4519 -110.7911 68° East  Level Estimated
02:09PM 35.5029 -110.6323 68° East  Level Estimated
02:10PM 35.5537 -110.4732 69° East  Level Estimated
02:11PM 35.6044 -110.3139 69° East  Level Estimated
02:12PM 35.6548 -110.1545 69° East  Level Estimated
02:13PM 35.7050 -109.9948 69° East  Level Estimated
02:14PM 35.7550 -109.8349 69° East  Level Estimated
02:15PM 35.8048 -109.6748 69° East  Level Estimated
02:16PM 35.8544 -109.5146 69° East  Level Estimated
02:17PM 35.9037 -109.3541 69° East  Level Estimated
02:18PM 35.9529 -109.1934 69° East  Level Estimated
02:19PM 36.0018 -109.0325 69° East  Level Estimated
02:20PM 36.0505 -108.8715 69° East  Level Estimated
02:21PM 36.0990 -108.7102 70° East  Level Estimated
02:22PM 36.1473 -108.5487 70° East  Level Estimated
02:23PM 36.1954 -108.3870 70° East  Level Estimated
02:24PM 36.2432 -108.2252 70° East  Level Estimated
02:25PM 36.2909 -108.0631 70° East  Level Estimated
02:26PM 36.3383 -107.9008 70° East  Level Estimated
02:27PM 36.3855 -107.7384 70° East  Level Estimated
02:28PM 36.4324 -107.5757 70° East  Level Estimated
02:29PM 36.4792 -107.4129 70° East  Level Estimated
02:30PM 36.5257 -107.2498 70° East  Level Estimated
02:31PM 36.5720 -107.0866 71° East  Level Estimated
02:32PM 36.6181 -106.9231 71° East  Level Estimated
02:33PM 36.6640 -106.7595 71° East  Level Estimated
02:34PM 36.7096 -106.5956 71° East  Level Estimated
02:35PM 36.7550 -106.4316 71° East  Level Estimated
02:36PM 36.8002 -106.2674 71° East  Level Estimated
02:37PM 36.8452 -106.1030 71° East  Level Estimated
02:38PM 36.8899 -105.9384 71° East  Level Estimated
02:39PM 36.9344 -105.7736 71° East  Level Estimated
02:40PM 36.9787 -105.6086 71° East  Level Estimated
02:41PM 37.0228 -105.4434 71° East  Level Estimated
02:42PM 37.0666 -105.2780 72° East  Level Estimated
02:43PM 37.1102 -105.1125 72° East  Level Estimated
02:44PM 37.1535 -104.9467 72° East  Level Estimated
02:45PM 37.1967 -104.7808 72° East  Level Estimated
02:46PM 37.2396 -104.6147 72° East  Level Estimated
02:47PM 37.2822 -104.4483 72° East  Level Estimated
02:48PM 37.3246 -104.2818 72° East  Level Estimated
02:49PM 37.3669 -104.1151 72° East  Level Estimated
02:50PM 37.4088 -103.9482 72° East  Level Estimated
02:51PM 37.4506 -103.7812 72° East  Level Estimated
02:52PM 37.4921 -103.6139 73° East  Level Estimated
02:53PM 37.5333 -103.4465 73° East  Level Estimated
02:54PM 37.5743 -103.2788 73° East  Level Estimated
02:55PM 37.6151 -103.1110 73° East  Level Estimated
02:56PM 37.6557 -102.9430 73° East  Level Estimated
02:57PM 37.6960 -102.7748 73° East  Level Estimated
02:58PM 37.7360 -102.6065 73° East  Level Estimated
02:59PM 37.7759 -102.4380 73° East  Level Estimated
03:00PM 37.8155 -102.2692 73° East  Level Estimated
03:01PM 37.8548 -102.1003 74° East  Level Estimated
03:02PM 37.8939 -101.9312 74° East  Level Estimated
03:03PM 37.9328 -101.7620 74° East  Level Estimated
03:04PM 37.9714 -101.5925 74° East  Level Estimated
03:05PM 38.0098 -101.4229 74° East  Level Estimated
03:06PM 38.0479 -101.2531 74° East  Level Estimated
03:07PM 38.0858 -101.0832 74° East  Level Estimated
03:08PM 38.1235 -100.9130 74° East  Level Estimated
03:09PM 38.1609 -100.7427 74° East  Level Estimated
03:10PM 38.1980 -100.5722 74° East  Level Estimated
03:11PM 38.2350 -100.4015 75° East  Level Estimated
03:12PM 38.2716 -100.2307 75° East  Level Estimated
03:13PM 38.3080 -100.0596 75° East  Level Estimated
03:14PM 38.3442 -99.8885 75° East  Level Estimated
03:15PM 38.3801 -99.7171 75° East  Level Estimated
03:16PM 38.4158 -99.5456 75° East  Level Estimated
03:17PM 38.4512 -99.3739 75° East  Level Estimated
03:18PM 38.4864 -99.2020 75° East  Level Estimated
03:19PM 38.5213 -99.0300 75° East  Level Estimated
03:20PM 38.5559 -98.8578 76° East  Level Estimated
03:21PM 38.5903 -98.6854 76° East  Level Estimated
03:22PM 38.6245 -98.5129 76° East  Level Estimated
03:23PM 38.6584 -98.3402 76° East  Level Estimated
03:24PM 38.6920 -98.1673 76° East  Level Estimated
03:25PM 38.7254 -97.9943 76° East  Level Estimated
03:26PM 38.7586 -97.8211 76° East  Level Estimated
03:27PM 38.7906 -97.6522 76° East  Level Estimated
03:28PM 38.7906 -97.6522 303° West  Level Estimated
03:29PM 38.7906 -97.6522 303° West  Level Estimated
03:30PM 38.7906 -97.6522 303° West  Level Estimated
03:31PM 38.7906 -97.6522 303° West  Level Estimated
03:32PM 38.7906 -97.6522 303° West  Level Estimated
03:33PM 38.7906 -97.6522 303° West  Level Estimated
03:34PM 38.7906 -97.6522 303° West  Level Estimated
03:35PM 38.7906 -97.6522 303° West  Level Estimated
03:36PM 38.7906 -97.6522 303° West  Level Estimated
03:37PM 38.7906 -97.6522 303° West  Level Estimated
03:38PM 38.7906 -97.6522 303° West  Level Estimated
03:39PM 38.7906 -97.6522 303° West  Level Estimated
03:40PM 38.7906 -97.6522 303° West  Level Estimated
03:41PM 38.7906 -97.6522 303° West  Level Estimated
03:42PM 38.7906 -97.6522 303° West  Level Estimated
03:43PM 38.7906 -97.6522 303° West  Level Estimated